sensor_id;sensor_type;location;lat;lon;timestamp;P1;durP1;ratioP1;P2;durP2;ratioP2
76989;SDS011;65924;47.250;11.332;2023-09-12T00:04:16;12.70;;;7.60;;
76989;SDS011;65924;47.250;11.332;2023-09-12T00:14:17;11.10;;;7.70;;
76989;SDS011;65924;47.250;11.332;2023-09-12T00:24:19;12.10;;;6.90;;
76989;SDS011;65924;47.250;11.332;2023-09-12T00:34:19;9.80;;;6.90;;
76989;SDS011;65924;47.250;11.332;2023-09-12T00:44:20;9.90;;;7.20;;
76989;SDS011;65924;47.250;11.332;2023-09-12T00:54:20;11.40;;;8.00;;
76989;SDS011;65924;47.250;11.332;2023-09-12T01:04:21;10.50;;;7.50;;
76989;SDS011;65924;47.250;11.332;2023-09-12T01:14:22;9.70;;;7.10;;
76989;SDS011;65924;47.250;11.332;2023-09-12T01:34:39;13.60;;;7.60;;
76989;SDS011;65924;47.250;11.332;2023-09-12T01:44:39;11.10;;;7.50;;
76989;SDS011;65924;47.250;11.332;2023-09-12T01:54:43;11.00;;;7.90;;
76989;SDS011;65924;47.250;11.332;2023-09-12T02:15:05;11.20;;;7.80;;
76989;SDS011;65924;47.250;11.332;2023-09-12T02:25:06;11.00;;;8.20;;
76989;SDS011;65924;47.250;11.332;2023-09-12T02:35:10;11.90;;;7.60;;
76989;SDS011;65924;47.250;11.332;2023-09-12T02:45:11;12.90;;;8.00;;
76989;SDS011;65924;47.250;11.332;2023-09-12T02:55:11;11.50;;;7.50;;
76989;SDS011;65924;47.250;11.332;2023-09-12T03:05:12;10.70;;;7.60;;
76989;SDS011;65924;47.250;11.332;2023-09-12T03:15:13;9.60;;;7.80;;
76989;SDS011;65924;47.250;11.332;2023-09-12T03:25:14;10.80;;;7.70;;
76989;SDS011;65924;47.250;11.332;2023-09-12T03:35:15;10.70;;;6.90;;
76989;SDS011;65924;47.250;11.332;2023-09-12T03:45:15;10.40;;;7.10;;
76989;SDS011;65924;47.250;11.332;2023-09-12T03:55:16;10.50;;;7.60;;
76989;SDS011;65924;47.250;11.332;2023-09-12T04:05:17;12.20;;;7.10;;
76989;SDS011;65924;47.250;11.332;2023-09-12T04:15:18;10.30;;;7.60;;
76989;SDS011;65924;47.250;11.332;2023-09-12T04:25:18;13.40;;;7.70;;
76989;SDS011;65924;47.250;11.332;2023-09-12T04:35:20;10.10;;;7.20;;
76989;SDS011;65924;47.250;11.332;2023-09-12T04:45:21;11.30;;;7.90;;
76989;SDS011;65924;47.250;11.332;2023-09-12T04:55:22;10.30;;;7.40;;
76989;SDS011;65924;47.250;11.332;2023-09-12T05:05:22;10.30;;;8.00;;
76989;SDS011;65924;47.250;11.332;2023-09-12T05:15:23;11.80;;;8.00;;
76989;SDS011;65924;47.250;11.332;2023-09-12T05:25:24;11.70;;;8.00;;
76989;SDS011;65924;47.250;11.332;2023-09-12T05:35:27;10.60;;;8.00;;
76989;SDS011;65924;47.250;11.332;2023-09-12T05:45:28;12.10;;;7.80;;
76989;SDS011;65924;47.250;11.332;2023-09-12T05:55:31;11.50;;;8.60;;
76989;SDS011;65924;47.250;11.332;2023-09-12T06:05:32;11.90;;;7.70;;
76989;SDS011;65924;47.250;11.332;2023-09-12T06:15:33;10.10;;;7.10;;
76989;SDS011;65924;47.250;11.332;2023-09-12T06:25:33;15.70;;;9.10;;
76989;SDS011;65924;47.250;11.332;2023-09-12T06:35:35;11.60;;;8.60;;
76989;SDS011;65924;47.250;11.332;2023-09-12T06:45:36;17.80;;;9.20;;
76989;SDS011;65924;47.250;11.332;2023-09-12T06:55:38;11.70;;;8.50;;
76989;SDS011;65924;47.250;11.332;2023-09-12T07:05:38;14.10;;;9.10;;
76989;SDS011;65924;47.250;11.332;2023-09-12T07:15:40;13.90;;;9.70;;
76989;SDS011;65924;47.250;11.332;2023-09-12T07:25:41;15.40;;;9.80;;
76989;SDS011;65924;47.250;11.332;2023-09-12T07:35:41;11.60;;;8.10;;
76989;SDS011;65924;47.250;11.332;2023-09-12T07:45:42;12.90;;;8.20;;
76989;SDS011;65924;47.250;11.332;2023-09-12T07:55:42;14.00;;;9.50;;
76989;SDS011;65924;47.250;11.332;2023-09-12T08:05:56;11.20;;;7.90;;
76989;SDS011;65924;47.250;11.332;2023-09-12T08:15:58;14.80;;;7.70;;
76989;SDS011;65924;47.250;11.332;2023-09-12T08:25:59;15.30;;;8.40;;
76989;SDS011;65924;47.250;11.332;2023-09-12T08:36:00;11.20;;;8.00;;
76989;SDS011;65924;47.250;11.332;2023-09-12T08:46:00;13.80;;;8.80;;
76989;SDS011;65924;47.250;11.332;2023-09-12T08:56:01;12.70;;;8.30;;
76989;SDS011;65924;47.250;11.332;2023-09-12T09:06:04;11.80;;;7.90;;
76989;SDS011;65924;47.250;11.332;2023-09-12T09:26:21;12.60;;;8.00;;
76989;SDS011;65924;47.250;11.332;2023-09-12T09:36:24;13.50;;;8.30;;
76989;SDS011;65924;47.250;11.332;2023-09-12T09:46:26;11.10;;;7.90;;
76989;SDS011;65924;47.250;11.332;2023-09-12T09:56:26;12.00;;;8.10;;
76989;SDS011;65924;47.250;11.332;2023-09-12T10:06:27;13.50;;;8.50;;
76989;SDS011;65924;47.250;11.332;2023-09-12T10:16:32;10.20;;;7.60;;
76989;SDS011;65924;47.250;11.332;2023-09-12T10:26:34;12.50;;;7.90;;
76989;SDS011;65924;47.250;11.332;2023-09-12T10:36:39;10.00;;;7.30;;
76989;SDS011;65924;47.250;11.332;2023-09-12T10:46:41;11.80;;;7.00;;
76989;SDS011;65924;47.250;11.332;2023-09-12T10:56:43;9.90;;;7.40;;
76989;SDS011;65924;47.250;11.332;2023-09-12T11:06:51;9.80;;;7.60;;
76989;SDS011;65924;47.250;11.332;2023-09-12T11:27:30;14.50;;;8.80;;
76989;SDS011;65924;47.250;11.332;2023-09-12T11:37:51;13.20;;;9.20;;
76989;SDS011;65924;47.250;11.332;2023-09-12T11:47:56;14.00;;;8.50;;
76989;SDS011;65924;47.250;11.332;2023-09-12T11:57:57;12.80;;;8.50;;
76989;SDS011;65924;47.250;11.332;2023-09-12T12:07:58;11.10;;;8.80;;
76989;SDS011;65924;47.250;11.332;2023-09-12T12:17:59;14.60;;;8.90;;
76989;SDS011;65924;47.250;11.332;2023-09-12T12:27:59;9.20;;;6.60;;
76989;SDS011;65924;47.250;11.332;2023-09-12T12:38:04;14.00;;;7.60;;
76989;SDS011;65924;47.250;11.332;2023-09-12T12:48:04;10.50;;;6.60;;
76989;SDS011;65924;47.250;11.332;2023-09-12T12:58:06;10.80;;;7.00;;
76989;SDS011;65924;47.250;11.332;2023-09-12T13:08:06;9.80;;;6.00;;
76989;SDS011;65924;47.250;11.332;2023-09-12T13:18:07;15.40;;;7.30;;
76989;SDS011;65924;47.250;11.332;2023-09-12T13:28:08;12.00;;;7.60;;
76989;SDS011;65924;47.250;11.332;2023-09-12T13:38:08;13.20;;;8.10;;
76989;SDS011;65924;47.250;11.332;2023-09-12T13:48:12;11.80;;;7.30;;
76989;SDS011;65924;47.250;11.332;2023-09-12T13:58:13;13.00;;;6.60;;
76989;SDS011;65924;47.250;11.332;2023-09-12T14:08:14;9.70;;;6.30;;
76989;SDS011;65924;47.250;11.332;2023-09-12T14:18:15;11.30;;;7.70;;
76989;SDS011;65924;47.250;11.332;2023-09-12T14:28:17;10.80;;;7.10;;
76989;SDS011;65924;47.250;11.332;2023-09-12T14:38:18;12.50;;;7.70;;
76989;SDS011;65924;47.250;11.332;2023-09-12T14:48:19;10.10;;;6.50;;
76989;SDS011;65924;47.250;11.332;2023-09-12T14:58:21;10.30;;;6.70;;
76989;SDS011;65924;47.250;11.332;2023-09-12T15:08:22;9.30;;;5.70;;
76989;SDS011;65924;47.250;11.332;2023-09-12T15:18:23;8.50;;;4.80;;
76989;SDS011;65924;47.250;11.332;2023-09-12T15:28:24;8.20;;;5.10;;
76989;SDS011;65924;47.250;11.332;2023-09-12T15:38:26;10.40;;;5.80;;
76989;SDS011;65924;47.250;11.332;2023-09-12T15:48:28;8.80;;;5.90;;
76989;SDS011;65924;47.250;11.332;2023-09-12T15:58:29;9.90;;;6.10;;
76989;SDS011;65924;47.250;11.332;2023-09-12T16:08:30;10.80;;;6.20;;
76989;SDS011;65924;47.250;11.332;2023-09-12T16:18:32;14.30;;;6.50;;
76989;SDS011;65924;47.250;11.332;2023-09-12T16:28:34;7.60;;;5.50;;
76989;SDS011;65924;47.250;11.332;2023-09-12T16:38:36;8.70;;;5.50;;
76989;SDS011;65924;47.250;11.332;2023-09-12T16:48:37;9.50;;;6.60;;
76989;SDS011;65924;47.250;11.332;2023-09-12T16:58:39;8.60;;;3.30;;
76989;SDS011;65924;47.250;11.332;2023-09-12T17:08:41;13.90;;;3.20;;
76989;SDS011;65924;47.250;11.332;2023-09-12T17:18:42;12.60;;;4.40;;
76989;SDS011;65924;47.250;11.332;2023-09-12T17:28:44;7.90;;;2.90;;
76989;SDS011;65924;47.250;11.332;2023-09-12T17:38:44;6.90;;;2.40;;
76989;SDS011;65924;47.250;11.332;2023-09-12T17:48:46;7.90;;;2.10;;
76989;SDS011;65924;47.250;11.332;2023-09-12T17:58:47;6.80;;;2.60;;
76989;SDS011;65924;47.250;11.332;2023-09-12T18:08:50;5.00;;;2.00;;
76989;SDS011;65924;47.250;11.332;2023-09-12T18:18:50;6.90;;;2.30;;
76989;SDS011;65924;47.250;11.332;2023-09-12T18:28:52;5.90;;;2.20;;
76989;SDS011;65924;47.250;11.332;2023-09-12T18:38:53;4.70;;;2.20;;
76989;SDS011;65924;47.250;11.332;2023-09-12T18:48:54;7.60;;;2.70;;
76989;SDS011;65924;47.250;11.332;2023-09-12T18:58:59;9.60;;;2.90;;
76989;SDS011;65924;47.250;11.332;2023-09-12T19:09:01;6.50;;;2.50;;
76989;SDS011;65924;47.250;11.332;2023-09-12T19:19:09;6.00;;;2.80;;
76989;SDS011;65924;47.250;11.332;2023-09-12T19:29:13;5.30;;;2.40;;
76989;SDS011;65924;47.250;11.332;2023-09-12T19:39:18;5.50;;;2.40;;
76989;SDS011;65924;47.250;11.332;2023-09-12T19:49:19;6.40;;;2.20;;
76989;SDS011;65924;47.250;11.332;2023-09-12T19:59:21;6.30;;;2.90;;
76989;SDS011;65924;47.250;11.332;2023-09-12T20:09:22;6.70;;;2.60;;
76989;SDS011;65924;47.250;11.332;2023-09-12T20:19:24;4.70;;;2.50;;
76989;SDS011;65924;47.250;11.332;2023-09-12T20:29:24;4.90;;;2.30;;
76989;SDS011;65924;47.250;11.332;2023-09-12T20:39:28;5.90;;;2.80;;
76989;SDS011;65924;47.250;11.332;2023-09-12T20:49:30;6.20;;;2.60;;
76989;SDS011;65924;47.250;11.332;2023-09-12T20:59:35;5.70;;;2.80;;
76989;SDS011;65924;47.250;11.332;2023-09-12T21:09:36;6.10;;;2.80;;
76989;SDS011;65924;47.250;11.332;2023-09-12T21:19:37;6.10;;;2.60;;
76989;SDS011;65924;47.250;11.332;2023-09-12T21:29:38;6.20;;;2.60;;
76989;SDS011;65924;47.250;11.332;2023-09-12T21:39:41;5.00;;;2.60;;
76989;SDS011;65924;47.250;11.332;2023-09-12T21:49:43;5.10;;;2.50;;
76989;SDS011;65924;47.250;11.332;2023-09-12T21:59:44;6.60;;;2.60;;
76989;SDS011;65924;47.250;11.332;2023-09-12T22:09:45;5.00;;;2.50;;
76989;SDS011;65924;47.250;11.332;2023-09-12T22:19:46;6.60;;;2.50;;
76989;SDS011;65924;47.250;11.332;2023-09-12T22:29:47;5.30;;;2.40;;
76989;SDS011;65924;47.250;11.332;2023-09-12T22:39:48;6.70;;;3.10;;
76989;SDS011;65924;47.250;11.332;2023-09-12T22:49:50;6.10;;;2.90;;
76989;SDS011;65924;47.250;11.332;2023-09-12T22:59:51;5.10;;;2.40;;
76989;SDS011;65924;47.250;11.332;2023-09-12T23:09:52;4.50;;;2.10;;
76989;SDS011;65924;47.250;11.332;2023-09-12T23:19:53;5.70;;;2.50;;
76989;SDS011;65924;47.250;11.332;2023-09-12T23:29:53;5.80;;;2.70;;
76989;SDS011;65924;47.250;11.332;2023-09-12T23:39:55;5.90;;;2.40;;
76989;SDS011;65924;47.250;11.332;2023-09-12T23:49:56;4.70;;;2.30;;
76989;SDS011;65924;47.250;11.332;2023-09-12T23:59:57;4.90;;;2.20;;
